createdAt,value
2023-03-11T00:02:44.216Z,96068.97
2023-03-11T00:05:54.506Z,96067.16
2023-03-11T00:09:06.240Z,96068.41
2023-03-11T00:12:18.195Z,96064.59
2023-03-11T00:15:23.438Z,96064.91
2023-03-11T00:18:32.181Z,96068.97
2023-03-11T00:21:36.413Z,96087.13
2023-03-11T00:24:43.938Z,96074.66
2023-03-11T00:28:00.472Z,96065.84
2023-03-11T00:31:42.829Z,96059.41
2023-03-11T00:39:33.267Z,96053.91
2023-03-11T00:43:27.218Z,96041.03
2023-03-11T00:47:53.740Z,96056.00
2023-03-11T00:52:12.823Z,96056.28
2023-03-11T00:56:23.827Z,96060.47
2023-03-11T01:00:24.575Z,96069.00
2023-03-11T01:04:01.675Z,96076.41
2023-03-11T01:11:21.200Z,96085.41
2023-03-11T01:14:44.318Z,96082.19
2023-03-11T01:21:52.540Z,96089.34
2023-03-11T01:25:11.111Z,96084.34
2023-03-11T01:28:19.470Z,96085.56
2023-03-11T01:31:30.999Z,96085.69
2023-03-11T01:34:43.030Z,96086.69
2023-03-11T01:37:55.390Z,96083.47
2023-03-11T01:41:07.805Z,96077.81
2023-03-11T01:44:36.833Z,96089.47
2023-03-11T01:47:46.059Z,96084.59
2023-03-11T01:50:54.152Z,96075.41
2023-03-11T01:54:01.522Z,96079.44
2023-03-11T01:57:17.266Z,96074.88
2023-03-11T02:00:45.502Z,96081.91
2023-03-11T02:04:12.226Z,96076.22
2023-03-11T02:07:23.719Z,96076.78
2023-03-11T02:10:35.163Z,96084.06
2023-03-11T02:13:46.334Z,96077.25
2023-03-11T02:16:52.988Z,96073.03
2023-03-11T02:20:15.258Z,96069.56
2023-03-11T02:23:26.130Z,96068.41
2023-03-11T02:26:39.794Z,96067.41
2023-03-11T02:29:50.162Z,96069.53
2023-03-11T02:32:58.859Z,96063.94
2023-03-11T02:36:30.020Z,96062.63
2023-03-11T02:39:43.533Z,96058.16
2023-03-11T02:43:03.357Z,96058.03
2023-03-11T02:46:36.787Z,96059.72
2023-03-11T02:49:45.429Z,96057.06
2023-03-11T02:52:54.210Z,96059.56
2023-03-11T02:56:03.425Z,96055.13
2023-03-11T02:59:11.432Z,96058.66
2023-03-11T03:02:22.664Z,96055.78
2023-03-11T03:05:29.760Z,96056.06
2023-03-11T03:08:37.150Z,96049.69
2023-03-11T03:11:53.933Z,96056.69
2023-03-11T03:15:24.162Z,96058.16
2023-03-11T03:18:45.706Z,96063.41
2023-03-11T03:21:54.483Z,96065.78
2023-03-11T03:25:05.551Z,96066.50
2023-03-11T03:28:12.803Z,96064.94
2023-03-11T03:31:22.204Z,96069.75
2023-03-11T03:34:29.694Z,96071.69
2023-03-11T03:37:37.646Z,96071.41
2023-03-11T03:40:49.249Z,96074.91
2023-03-11T03:44:03.225Z,96078.09
2023-03-11T03:47:08.173Z,96077.53
2023-03-11T03:50:15.001Z,96089.91
2023-03-11T03:53:25.656Z,96097.44
2023-03-11T03:57:00.609Z,96096.81
2023-03-11T04:00:32.612Z,96100.16
2023-03-11T04:03:53.168Z,96102.13
2023-03-11T04:07:14.147Z,96095.94
2023-03-11T04:10:23.136Z,96108.59
2023-03-11T04:13:38.780Z,96113.25
2023-03-11T04:17:27.046Z,96107.22
2023-03-11T04:20:52.463Z,96107.59
2023-03-11T04:24:01.892Z,96117.69
2023-03-11T04:27:16.301Z,96108.50
2023-03-11T04:30:27.634Z,96119.41
2023-03-11T04:33:42.365Z,96118.56
2023-03-11T04:36:53.939Z,96120.94
2023-03-11T04:40:09.483Z,96119.97
2023-03-11T04:46:58.158Z,96123.75
2023-03-11T04:50:11.945Z,96124.22
2023-03-11T04:53:21.684Z,96125.97
2023-03-11T04:56:30.231Z,96126.34
2023-03-11T04:59:40.747Z,96125.03
2023-03-11T05:02:55.474Z,96130.91
2023-03-11T05:06:02.827Z,96124.91
2023-03-11T05:09:12.312Z,96132.38
2023-03-11T05:12:23.642Z,96130.25
2023-03-11T05:15:33.971Z,96132.47
2023-03-11T05:18:45.199Z,96127.25
2023-03-11T05:21:52.176Z,96129.94
2023-03-11T05:25:01.458Z,96129.66
2023-03-11T05:28:10.657Z,96131.03
2023-03-11T05:31:23.780Z,96134.97
2023-03-11T05:34:29.188Z,96131.88
2023-03-11T05:37:33.666Z,96124.63
2023-03-11T05:40:48.299Z,96127.50
2023-03-11T05:44:08.530Z,96132.22
2023-03-11T05:47:13.027Z,96132.97
2023-03-11T05:50:28.999Z,96124.41
2023-03-11T05:53:39.007Z,96116.19
2023-03-11T05:56:56.154Z,96124.97
2023-03-11T06:00:12.496Z,96128.97
2023-03-11T06:03:26.149Z,96122.25
2023-03-11T06:06:31.529Z,96120.50
2023-03-11T06:09:37.152Z,96126.31
2023-03-11T06:12:47.264Z,96108.34
2023-03-11T06:16:35.838Z,96099.28
2023-03-11T06:19:45.062Z,96106.06
2023-03-11T06:22:50.861Z,96113.47
2023-03-11T06:26:00.401Z,96123.50
2023-03-11T06:29:10.994Z,96122.69
2023-03-11T06:32:39.846Z,96121.25
2023-03-11T06:35:45.908Z,96110.03
2023-03-11T06:38:54.150Z,96109.88
2023-03-11T06:42:00.355Z,96112.09
2023-03-11T06:45:07.660Z,96109.88
2023-03-11T06:48:14.005Z,96108.44
2023-03-11T06:51:18.192Z,96115.53
2023-03-11T06:54:25.773Z,96123.78
2023-03-11T06:57:35.263Z,96128.72
2023-03-11T07:00:50.944Z,96134.28
2023-03-11T07:04:03.063Z,96132.28
2023-03-11T07:07:14.708Z,96133.94
2023-03-11T07:10:39.754Z,96139.44
2023-03-11T07:13:51.860Z,96131.47
2023-03-11T07:17:11.717Z,96121.22
2023-03-11T07:20:45.445Z,96117.06
2023-03-11T07:23:56.270Z,96117.91
2023-03-11T07:27:09.773Z,96122.84
2023-03-11T07:30:23.826Z,96135.91
2023-03-11T07:33:39.206Z,96134.78
2023-03-11T07:37:02.477Z,96145.66
2023-03-11T07:40:16.687Z,96149.88
2023-03-11T07:43:42.221Z,96145.13
2023-03-11T07:47:09.458Z,96147.56
2023-03-11T07:50:19.372Z,96153.91
2023-03-11T07:53:27.320Z,96162.53
2023-03-11T07:56:42.826Z,96174.69
2023-03-11T08:00:00.442Z,96190.88
2023-03-11T08:03:41.933Z,96199.91
2023-03-11T08:06:59.355Z,96184.97
2023-03-11T08:10:54.314Z,96181.47
2023-03-11T08:18:10.698Z,96198.81
2023-03-11T08:21:24.170Z,96212.81
2023-03-11T08:24:28.849Z,96208.59
2023-03-11T08:27:34.585Z,96209.00
2023-03-11T08:30:42.932Z,96219.31
2023-03-11T08:33:50.008Z,96220.38
2023-03-11T08:36:55.513Z,96224.91
2023-03-11T08:40:02.922Z,96225.06
2023-03-11T08:43:14.122Z,96223.53
2023-03-11T08:46:27.009Z,96217.63
2023-03-11T08:50:22.238Z,96222.66
2023-03-11T08:53:28.957Z,96220.19
2023-03-11T08:56:34.040Z,96220.41
2023-03-11T08:59:40.556Z,96218.56
2023-03-11T09:02:44.247Z,96236.09
2023-03-11T09:05:48.336Z,96238.59
2023-03-11T09:08:52.198Z,96244.94
2023-03-11T09:16:02.250Z,96256.53
2023-03-11T09:19:07.990Z,96264.94
2023-03-11T09:22:14.595Z,96261.97
2023-03-11T09:25:18.870Z,96268.31
2023-03-11T09:28:23.483Z,96281.91
2023-03-11T09:31:30.934Z,96286.38
2023-03-11T09:34:36.753Z,96292.31
2023-03-11T09:37:45.380Z,96296.03
2023-03-11T09:41:04.125Z,96300.88
2023-03-11T09:44:16.698Z,96295.56
2023-03-11T09:47:40.028Z,96301.56
2023-03-11T09:50:51.436Z,96309.13
2023-03-11T09:54:08.258Z,96296.41
2023-03-11T09:57:26.116Z,96291.88
2023-03-11T10:00:42.079Z,96288.34
2023-03-11T10:04:10.373Z,96305.09
2023-03-11T10:07:23.843Z,96323.66
2023-03-11T10:10:37.705Z,96326.97
2023-03-11T10:13:52.384Z,96333.00
2023-03-11T10:17:05.043Z,96338.16
2023-03-11T10:20:15.833Z,96353.69
2023-03-11T10:23:27.137Z,96340.84
2023-03-11T10:26:37.259Z,96353.47
2023-03-11T10:29:49.559Z,96368.34
2023-03-11T10:33:02.323Z,96382.56
2023-03-11T10:36:15.347Z,96363.25
2023-03-11T10:39:21.109Z,96369.03
2023-03-11T10:42:29.825Z,96382.75
2023-03-11T10:45:43.787Z,96377.75
2023-03-11T10:48:47.445Z,96367.34
2023-03-11T10:51:55.441Z,96391.78
2023-03-11T10:55:04.169Z,96378.75
2023-03-11T10:58:17.549Z,96382.88
2023-03-11T11:01:22.306Z,96404.25
2023-03-11T11:04:38.212Z,96406.94
2023-03-11T11:07:54.570Z,96397.28
2023-03-11T11:11:01.898Z,96404.50
2023-03-11T11:14:06.354Z,96428.94
2023-03-11T11:17:20.041Z,96432.09
2023-03-11T11:20:28.081Z,96441.22
2023-03-11T11:23:42.399Z,96453.50
2023-03-11T11:27:08.096Z,96461.81
2023-03-11T11:30:20.183Z,96481.47
2023-03-11T11:33:28.702Z,96506.66
2023-03-11T11:36:37.397Z,96513.16
2023-03-11T11:39:54.477Z,96507.59
2023-03-11T11:43:03.143Z,96523.66
2023-03-11T11:46:15.203Z,96527.53
2023-03-11T11:49:23.890Z,96528.81
2023-03-11T11:52:31.967Z,96533.81
2023-03-11T11:55:43.858Z,96532.44
2023-03-11T11:58:48.656Z,96537.50
2023-03-11T12:02:07.710Z,96539.72
2023-03-11T12:05:17.508Z,96552.78
2023-03-11T12:08:29.548Z,96560.41
2023-03-11T12:11:42.152Z,96558.59
2023-03-11T12:14:55.151Z,96553.81
2023-03-11T12:18:05.551Z,96558.78
2023-03-11T12:21:23.972Z,96557.34
2023-03-11T12:24:51.033Z,96578.34
2023-03-11T12:28:04.633Z,96568.19
2023-03-11T12:31:10.607Z,96578.41
2023-03-11T12:34:17.749Z,96591.69
2023-03-11T12:37:24.626Z,96596.13
2023-03-11T12:40:57.633Z,96607.44
2023-03-11T12:44:21.138Z,96608.22
2023-03-11T12:47:29.746Z,96617.56
2023-03-11T12:50:41.503Z,96623.94
2023-03-11T12:53:50.904Z,96636.28
2023-03-11T12:56:59.669Z,96640.53
2023-03-11T13:00:23.238Z,96642.34
2023-03-11T13:03:53.004Z,96660.59
2023-03-11T13:07:36.802Z,96660.00
2023-03-11T13:10:42.407Z,96669.81
2023-03-11T13:13:47.689Z,96681.16
2023-03-11T13:16:57.501Z,96678.25
2023-03-11T13:20:05.255Z,96683.31
2023-03-11T13:23:21.383Z,96676.50
2023-03-11T13:26:39.700Z,96681.69
2023-03-11T13:29:57.315Z,96683.56
2023-03-11T13:33:21.277Z,96679.41
2023-03-11T13:36:57.257Z,96684.03
2023-03-11T13:40:14.400Z,96688.41
2023-03-11T13:43:21.516Z,96692.50
2023-03-11T13:46:32.138Z,96700.56
2023-03-11T13:49:44.126Z,96701.44
2023-03-11T13:52:52.008Z,96701.94
2023-03-11T13:55:56.771Z,96711.19
2023-03-11T13:59:21.988Z,96711.00
2023-03-11T14:02:33.833Z,96706.59
2023-03-11T14:05:46.860Z,96711.56
2023-03-11T14:08:56.355Z,96711.38
2023-03-11T14:12:07.841Z,96717.22
2023-03-11T14:15:18.246Z,96723.69
2023-03-11T14:18:34.501Z,96723.50
2023-03-11T14:21:43.078Z,96723.97
2023-03-11T14:24:49.649Z,96735.34
2023-03-11T14:27:59.478Z,96737.06
2023-03-11T14:31:04.632Z,96733.31
2023-03-11T14:34:17.051Z,96741.44
2023-03-11T14:37:28.959Z,96748.59
2023-03-11T14:40:35.713Z,96755.13
2023-03-11T14:43:45.237Z,96762.19
2023-03-11T14:51:07.343Z,96757.78
2023-03-11T14:54:21.647Z,96757.72
2023-03-11T14:57:56.617Z,96753.09
2023-03-11T15:01:05.281Z,96762.81
2023-03-11T15:04:17.399Z,96762.03
2023-03-11T15:07:52.032Z,96757.22
2023-03-11T15:11:24.483Z,96766.50
2023-03-11T15:14:38.168Z,96763.56
2023-03-11T15:17:58.475Z,96784.06
2023-03-11T15:21:18.382Z,96784.84
2023-03-11T15:24:27.207Z,96774.31
2023-03-11T15:27:36.245Z,96771.94
2023-03-11T15:30:43.061Z,96773.75
2023-03-11T15:33:48.192Z,96787.69
2023-03-11T15:37:00.958Z,96781.78
2023-03-11T15:40:14.381Z,96787.81
2023-03-11T15:43:26.615Z,96799.69
2023-03-11T15:47:24.615Z,96808.16
2023-03-11T15:50:43.010Z,96811.81
2023-03-11T15:53:54.642Z,96803.50
2023-03-11T15:57:04.898Z,96816.34
2023-03-11T16:00:24.453Z,96807.50
2023-03-11T16:03:35.318Z,96825.59
2023-03-11T16:06:59.526Z,96832.97
2023-03-11T16:10:31.117Z,96830.22
2023-03-11T16:13:45.568Z,96826.50
2023-03-11T16:17:34.096Z,96835.50
2023-03-11T16:21:15.967Z,96828.50
2023-03-11T16:25:07.830Z,96832.94
2023-03-11T16:29:21.455Z,96832.28
2023-03-11T16:34:03.065Z,96847.31
2023-03-11T16:37:07.368Z,96856.88
2023-03-11T16:40:37.545Z,96859.47
2023-03-11T16:44:36.438Z,96871.06
2023-03-11T16:48:22.673Z,96874.22
2023-03-11T16:51:26.452Z,96872.59
2023-03-11T16:54:31.300Z,96885.59
2023-03-11T17:02:06.089Z,96901.53
2023-03-11T17:06:10.949Z,96912.34
2023-03-11T17:09:38.251Z,96902.53
2023-03-11T17:13:01.147Z,96909.13
2023-03-11T17:16:29.928Z,96908.47
2023-03-11T17:19:38.740Z,96915.84
2023-03-11T17:22:46.952Z,96924.75
2023-03-11T17:25:50.815Z,96935.25
2023-03-11T17:29:04.821Z,96938.72
2023-03-11T17:32:10.288Z,96945.66
2023-03-11T17:35:15.046Z,96946.22
2023-03-11T17:38:28.857Z,96950.72
2023-03-11T17:41:36.297Z,96963.81
2023-03-11T17:44:51.035Z,96962.00
2023-03-11T17:48:14.856Z,96965.16
2023-03-11T17:51:20.580Z,96973.91
2023-03-11T17:54:27.163Z,96974.16
2023-03-11T17:57:44.534Z,96988.88
2023-03-11T18:00:49.299Z,96981.88
2023-03-11T18:03:53.633Z,96978.38
2023-03-11T18:06:57.688Z,96978.00
2023-03-11T18:10:07.377Z,96982.00
2023-03-11T18:13:20.980Z,96997.72
2023-03-11T18:17:08.440Z,97007.94
2023-03-11T18:20:24.833Z,97011.19
2023-03-11T18:23:33.232Z,97017.06
2023-03-11T18:26:39.575Z,97029.31
2023-03-11T18:29:47.355Z,97021.47
2023-03-11T18:32:52.318Z,97031.72
2023-03-11T18:36:00.430Z,97039.63
2023-03-11T18:39:13.460Z,97057.75
2023-03-11T18:42:24.553Z,97058.50
2023-03-11T18:45:28.246Z,97067.28
2023-03-11T18:48:32.151Z,97074.81
2023-03-11T18:51:36.327Z,97072.50
2023-03-11T18:54:41.887Z,97073.63
2023-03-11T18:57:54.437Z,97082.34
2023-03-11T19:01:06.753Z,97090.31
2023-03-11T19:04:16.168Z,97096.41
2023-03-11T19:07:23.532Z,97097.31
2023-03-11T19:10:32.867Z,97110.34
2023-03-11T19:13:47.722Z,97112.09
2023-03-11T19:16:52.177Z,97106.63
2023-03-11T19:19:59.682Z,97117.97
2023-03-11T19:23:12.607Z,97116.06
2023-03-11T19:26:41.476Z,97121.97
2023-03-11T19:29:55.409Z,97127.75
2023-03-11T19:33:12.177Z,97136.56
2023-03-11T19:36:27.667Z,97146.56
2023-03-11T19:39:34.034Z,97150.75
2023-03-11T19:43:18.096Z,97154.59
2023-03-11T19:55:27.520Z,97169.34
2023-03-11T19:58:53.847Z,97175.53
2023-03-11T20:02:16.753Z,97174.44
2023-03-11T20:05:32.505Z,97186.91
2023-03-11T20:08:41.333Z,97190.28
2023-03-11T20:11:50.839Z,97201.03
2023-03-11T20:14:55.442Z,97197.66
2023-03-11T20:18:25.495Z,97208.47
2023-03-11T20:21:32.316Z,97215.97
2023-03-11T20:24:43.023Z,97212.16
2023-03-11T20:27:52.274Z,97217.66
2023-03-11T20:30:58.178Z,97224.44
2023-03-11T20:34:11.748Z,97218.25
2023-03-11T20:37:16.547Z,97229.09
2023-03-11T20:40:46.285Z,97240.28
2023-03-11T20:44:10.173Z,97238.63
2023-03-11T20:53:06.988Z,97238.47
2023-03-11T21:01:05.135Z,97242.94
2023-03-11T21:04:48.322Z,97254.03
2023-03-11T21:07:57.065Z,97254.47
2023-03-11T21:11:02.683Z,97254.63
2023-03-11T21:14:07.516Z,97260.63
2023-03-11T21:17:16.297Z,97273.13
2023-03-11T21:20:37.473Z,97268.19
2023-03-11T21:23:51.325Z,97266.94
2023-03-11T21:27:12.992Z,97276.66
2023-03-11T21:30:21.450Z,97285.19
2023-03-11T21:33:36.939Z,97294.69
2023-03-11T21:36:43.598Z,97291.34
2023-03-11T21:39:55.096Z,97293.69
2023-03-11T21:43:08.117Z,97293.56
2023-03-11T21:46:39.248Z,97307.25
2023-03-11T21:49:57.760Z,97303.22
2023-03-11T21:53:12.334Z,97306.34
2023-03-11T21:57:00.020Z,97312.06
2023-03-11T22:00:34.451Z,97321.13
2023-03-11T22:04:03.917Z,97324.69
2023-03-11T22:07:34.713Z,97337.50
2023-03-11T22:11:09.976Z,97327.94
2023-03-11T22:15:10.702Z,97330.56
2023-03-11T22:18:47.785Z,97322.09
2023-03-11T22:23:17.026Z,97331.16
2023-03-11T22:27:25.953Z,97327.97
2023-03-11T22:31:22.920Z,97335.56
2023-03-11T22:34:46.853Z,97357.78
2023-03-11T22:38:36.586Z,97344.34
2023-03-11T22:42:34.416Z,97357.00
2023-03-11T22:45:52.343Z,97350.97
2023-03-11T22:49:30.504Z,97349.25
2023-03-11T22:53:02.410Z,97352.88
2023-03-11T22:56:26.934Z,97359.44
2023-03-11T23:00:33.586Z,97359.63
2023-03-11T23:04:57.078Z,97356.34
2023-03-11T23:13:16.380Z,97345.94
2023-03-11T23:17:17.648Z,97344.88
2023-03-11T23:21:04.766Z,97333.88
2023-03-11T23:24:46.591Z,97339.81
2023-03-11T23:28:57.572Z,97345.34
2023-03-11T23:33:12.074Z,97349.78
2023-03-11T23:36:35.177Z,97346.88
2023-03-11T23:45:34.599Z,97363.03
2023-03-11T23:48:58.534Z,97353.94
2023-03-11T23:52:32.425Z,97357.59
2023-03-11T23:55:58.358Z,97361.28
